sensor_id;sensor_type;location;lat;lon;timestamp;P1;durP1;ratioP1;P2;durP2;ratioP2
63606;SDS011;71992;52.478;-1.918;2024-01-30T00:00:42;8.65;;;3.50;;
63606;SDS011;71992;52.478;-1.918;2024-01-30T00:03:13;7.65;;;3.08;;
63606;SDS011;71992;52.478;-1.918;2024-01-30T00:05:44;5.70;;;3.28;;
63606;SDS011;71992;52.478;-1.918;2024-01-30T00:08:15;8.45;;;3.25;;
63606;SDS011;71992;52.478;-1.918;2024-01-30T00:10:46;6.13;;;2.95;;
63606;SDS011;71992;52.478;-1.918;2024-01-30T00:13:19;7.00;;;3.05;;
63606;SDS011;71992;52.478;-1.918;2024-01-30T00:15:50;4.43;;;2.13;;
63606;SDS011;71992;52.478;-1.918;2024-01-30T00:18:21;6.70;;;2.17;;
63606;SDS011;71992;52.478;-1.918;2024-01-30T00:20:52;9.18;;;2.53;;
63606;SDS011;71992;52.478;-1.918;2024-01-30T00:23:24;7.63;;;2.45;;
63606;SDS011;71992;52.478;-1.918;2024-01-30T00:25:55;5.78;;;2.60;;
63606;SDS011;71992;52.478;-1.918;2024-01-30T00:28:30;4.80;;;2.00;;
63606;SDS011;71992;52.478;-1.918;2024-01-30T00:31:01;5.22;;;1.65;;
63606;SDS011;71992;52.478;-1.918;2024-01-30T00:33:32;5.70;;;1.92;;
63606;SDS011;71992;52.478;-1.918;2024-01-30T00:36:03;5.07;;;1.80;;
63606;SDS011;71992;52.478;-1.918;2024-01-30T00:38:35;6.40;;;1.87;;
63606;SDS011;71992;52.478;-1.918;2024-01-30T00:43:41;3.38;;;1.70;;
63606;SDS011;71992;52.478;-1.918;2024-01-30T00:46:12;6.30;;;2.05;;
63606;SDS011;71992;52.478;-1.918;2024-01-30T00:48:43;3.78;;;1.58;;
63606;SDS011;71992;52.478;-1.918;2024-01-30T00:51:13;6.43;;;1.90;;
63606;SDS011;71992;52.478;-1.918;2024-01-30T00:53:44;2.83;;;1.40;;
63606;SDS011;71992;52.478;-1.918;2024-01-30T00:56:15;2.92;;;1.50;;
63606;SDS011;71992;52.478;-1.918;2024-01-30T00:58:49;2.92;;;1.10;;
63606;SDS011;71992;52.478;-1.918;2024-01-30T01:01:20;2.92;;;0.90;;
63606;SDS011;71992;52.478;-1.918;2024-01-30T01:03:51;2.97;;;0.82;;
63606;SDS011;71992;52.478;-1.918;2024-01-30T01:06:22;3.45;;;1.00;;
63606;SDS011;71992;52.478;-1.918;2024-01-30T01:08:53;2.00;;;0.93;;
63606;SDS011;71992;52.478;-1.918;2024-01-30T01:11:24;3.45;;;0.90;;
63606;SDS011;71992;52.478;-1.918;2024-01-30T01:13:57;1.70;;;0.80;;
63606;SDS011;71992;52.478;-1.918;2024-01-30T01:16:28;2.85;;;1.10;;
63606;SDS011;71992;52.478;-1.918;2024-01-30T01:18:58;1.63;;;0.90;;
63606;SDS011;71992;52.478;-1.918;2024-01-30T01:21:30;1.52;;;0.80;;
63606;SDS011;71992;52.478;-1.918;2024-01-30T01:24:04;1.85;;;0.70;;
63606;SDS011;71992;52.478;-1.918;2024-01-30T01:26:35;1.20;;;0.60;;
63606;SDS011;71992;52.478;-1.918;2024-01-30T01:29:08;2.25;;;0.80;;
63606;SDS011;71992;52.478;-1.918;2024-01-30T01:31:39;1.65;;;0.63;;
63606;SDS011;71992;52.478;-1.918;2024-01-30T01:34:13;1.55;;;0.80;;
63606;SDS011;71992;52.478;-1.918;2024-01-30T01:36:47;0.68;;;0.60;;
63606;SDS011;71992;52.478;-1.918;2024-01-30T01:39:18;1.63;;;0.93;;
63606;SDS011;71992;52.478;-1.918;2024-01-30T01:41:49;2.22;;;1.02;;
63606;SDS011;71992;52.478;-1.918;2024-01-30T01:44:22;1.40;;;0.80;;
63606;SDS011;71992;52.478;-1.918;2024-01-30T01:46:54;1.52;;;0.80;;
63606;SDS011;71992;52.478;-1.918;2024-01-30T01:49:25;2.15;;;0.90;;
63606;SDS011;71992;52.478;-1.918;2024-01-30T01:51:57;1.00;;;0.80;;
63606;SDS011;71992;52.478;-1.918;2024-01-30T01:54:31;1.45;;;0.85;;
63606;SDS011;71992;52.478;-1.918;2024-01-30T01:57:04;1.60;;;0.80;;
63606;SDS011;71992;52.478;-1.918;2024-01-30T01:59:38;1.08;;;0.80;;
63606;SDS011;71992;52.478;-1.918;2024-01-30T02:02:08;2.28;;;0.95;;
63606;SDS011;71992;52.478;-1.918;2024-01-30T02:04:43;2.58;;;0.80;;
63606;SDS011;71992;52.478;-1.918;2024-01-30T02:07:14;3.30;;;0.90;;
63606;SDS011;71992;52.478;-1.918;2024-01-30T02:09:45;0.85;;;0.80;;
63606;SDS011;71992;52.478;-1.918;2024-01-30T02:12:16;0.90;;;0.73;;
63606;SDS011;71992;52.478;-1.918;2024-01-30T02:14:49;1.42;;;0.60;;
63606;SDS011;71992;52.478;-1.918;2024-01-30T02:17:22;0.90;;;0.70;;
63606;SDS011;71992;52.478;-1.918;2024-01-30T02:19:53;0.90;;;0.70;;
63606;SDS011;71992;52.478;-1.918;2024-01-30T02:22:26;0.60;;;0.55;;
63606;SDS011;71992;52.478;-1.918;2024-01-30T02:24:58;0.70;;;0.60;;
63606;SDS011;71992;52.478;-1.918;2024-01-30T02:27:29;1.30;;;0.70;;
63606;SDS011;71992;52.478;-1.918;2024-01-30T02:30:00;0.60;;;0.60;;
63606;SDS011;71992;52.478;-1.918;2024-01-30T02:32:31;1.08;;;0.70;;
63606;SDS011;71992;52.478;-1.918;2024-01-30T02:35:02;0.30;;;0.30;;
63606;SDS011;71992;52.478;-1.918;2024-01-30T02:37:35;0.70;;;0.50;;
63606;SDS011;71992;52.478;-1.918;2024-01-30T02:40:07;0.60;;;0.50;;
63606;SDS011;71992;52.478;-1.918;2024-01-30T02:42:39;0.60;;;0.40;;
63606;SDS011;71992;52.478;-1.918;2024-01-30T02:45:10;0.43;;;0.40;;
63606;SDS011;71992;52.478;-1.918;2024-01-30T02:47:42;0.47;;;0.40;;
63606;SDS011;71992;52.478;-1.918;2024-01-30T02:50:13;0.52;;;0.50;;
63606;SDS011;71992;52.478;-1.918;2024-01-30T02:52:46;0.45;;;0.45;;
63606;SDS011;71992;52.478;-1.918;2024-01-30T02:55:17;0.55;;;0.40;;
63606;SDS011;71992;52.478;-1.918;2024-01-30T02:57:49;0.80;;;0.50;;
63606;SDS011;71992;52.478;-1.918;2024-01-30T03:00:20;0.40;;;0.30;;
63606;SDS011;71992;52.478;-1.918;2024-01-30T03:02:51;0.55;;;0.40;;
63606;SDS011;71992;52.478;-1.918;2024-01-30T03:05:22;0.40;;;0.40;;
63606;SDS011;71992;52.478;-1.918;2024-01-30T03:07:55;0.50;;;0.30;;
63606;SDS011;71992;52.478;-1.918;2024-01-30T03:10:27;0.30;;;0.30;;
63606;SDS011;71992;52.478;-1.918;2024-01-30T03:12:58;0.30;;;0.30;;
63606;SDS011;71992;52.478;-1.918;2024-01-30T03:15:29;0.38;;;0.38;;
63606;SDS011;71992;52.478;-1.918;2024-01-30T03:18:00;0.40;;;0.40;;
63606;SDS011;71992;52.478;-1.918;2024-01-30T03:20:31;0.60;;;0.40;;
63606;SDS011;71992;52.478;-1.918;2024-01-30T03:23:04;0.47;;;0.43;;
63606;SDS011;71992;52.478;-1.918;2024-01-30T03:25:35;0.50;;;0.50;;
63606;SDS011;71992;52.478;-1.918;2024-01-30T03:28:06;0.60;;;0.47;;
63606;SDS011;71992;52.478;-1.918;2024-01-30T03:30:37;0.75;;;0.57;;
63606;SDS011;71992;52.478;-1.918;2024-01-30T03:33:08;0.60;;;0.55;;
63606;SDS011;71992;52.478;-1.918;2024-01-30T03:35:39;0.90;;;0.60;;
63606;SDS011;71992;52.478;-1.918;2024-01-30T03:38:12;0.60;;;0.60;;
63606;SDS011;71992;52.478;-1.918;2024-01-30T03:40:43;0.70;;;0.60;;
63606;SDS011;71992;52.478;-1.918;2024-01-30T03:43:14;0.60;;;0.57;;
63606;SDS011;71992;52.478;-1.918;2024-01-30T03:45:45;1.15;;;0.73;;
63606;SDS011;71992;52.478;-1.918;2024-01-30T03:48:15;0.50;;;0.50;;
63606;SDS011;71992;52.478;-1.918;2024-01-30T03:50:48;1.00;;;0.60;;
63606;SDS011;71992;52.478;-1.918;2024-01-30T03:53:21;0.80;;;0.68;;
63606;SDS011;71992;52.478;-1.918;2024-01-30T03:55:52;0.82;;;0.70;;
63606;SDS011;71992;52.478;-1.918;2024-01-30T03:58:23;1.00;;;0.77;;
63606;SDS011;71992;52.478;-1.918;2024-01-30T04:00:54;0.77;;;0.60;;
63606;SDS011;71992;52.478;-1.918;2024-01-30T04:03:24;0.82;;;0.68;;
63606;SDS011;71992;52.478;-1.918;2024-01-30T04:05:55;1.52;;;0.98;;
63606;SDS011;71992;52.478;-1.918;2024-01-30T04:08:29;0.85;;;0.70;;
63606;SDS011;71992;52.478;-1.918;2024-01-30T04:11:02;1.00;;;0.90;;
63606;SDS011;71992;52.478;-1.918;2024-01-30T04:13:34;0.88;;;0.70;;
63606;SDS011;71992;52.478;-1.918;2024-01-30T04:16:05;0.88;;;0.70;;
63606;SDS011;71992;52.478;-1.918;2024-01-30T04:18:37;0.60;;;0.60;;
63606;SDS011;71992;52.478;-1.918;2024-01-30T04:21:09;0.70;;;0.70;;
63606;SDS011;71992;52.478;-1.918;2024-01-30T04:23:42;0.50;;;0.50;;
63606;SDS011;71992;52.478;-1.918;2024-01-30T04:26:13;0.50;;;0.50;;
63606;SDS011;71992;52.478;-1.918;2024-01-30T04:28:45;0.60;;;0.50;;
63606;SDS011;71992;52.478;-1.918;2024-01-30T04:31:16;0.50;;;0.50;;
63606;SDS011;71992;52.478;-1.918;2024-01-30T04:33:47;1.30;;;0.55;;
63606;SDS011;71992;52.478;-1.918;2024-01-30T04:36:17;0.30;;;0.30;;
63606;SDS011;71992;52.478;-1.918;2024-01-30T04:38:51;0.45;;;0.40;;
63606;SDS011;71992;52.478;-1.918;2024-01-30T04:41:21;0.40;;;0.40;;
63606;SDS011;71992;52.478;-1.918;2024-01-30T04:43:53;0.40;;;0.40;;
63606;SDS011;71992;52.478;-1.918;2024-01-30T04:46:24;0.63;;;0.40;;
63606;SDS011;71992;52.478;-1.918;2024-01-30T04:48:55;1.30;;;0.35;;
63606;SDS011;71992;52.478;-1.918;2024-01-30T04:51:26;0.30;;;0.30;;
63606;SDS011;71992;52.478;-1.918;2024-01-30T04:53:59;0.40;;;0.40;;
63606;SDS011;71992;52.478;-1.918;2024-01-30T04:56:30;0.38;;;0.38;;
63606;SDS011;71992;52.478;-1.918;2024-01-30T04:59:01;0.70;;;0.40;;
63606;SDS011;71992;52.478;-1.918;2024-01-30T05:01:32;0.40;;;0.40;;
63606;SDS011;71992;52.478;-1.918;2024-01-30T05:04:03;0.40;;;0.40;;
63606;SDS011;71992;52.478;-1.918;2024-01-30T05:06:37;0.68;;;0.38;;
63606;SDS011;71992;52.478;-1.918;2024-01-30T05:09:10;0.47;;;0.43;;
63606;SDS011;71992;52.478;-1.918;2024-01-30T05:11:41;1.33;;;0.45;;
63606;SDS011;71992;52.478;-1.918;2024-01-30T05:14:12;0.57;;;0.50;;
63606;SDS011;71992;52.478;-1.918;2024-01-30T05:16:44;0.52;;;0.52;;
63606;SDS011;71992;52.478;-1.918;2024-01-30T05:19:15;0.82;;;0.45;;
63606;SDS011;71992;52.478;-1.918;2024-01-30T05:21:46;0.40;;;0.40;;
63606;SDS011;71992;52.478;-1.918;2024-01-30T05:24:19;1.33;;;0.35;;
63606;SDS011;71992;52.478;-1.918;2024-01-30T05:26:50;0.40;;;0.40;;
63606;SDS011;71992;52.478;-1.918;2024-01-30T05:29:21;0.30;;;0.30;;
63606;SDS011;71992;52.478;-1.918;2024-01-30T05:31:52;0.50;;;0.40;;
63606;SDS011;71992;52.478;-1.918;2024-01-30T05:34:23;0.38;;;0.38;;
63606;SDS011;71992;52.478;-1.918;2024-01-30T05:36:54;0.60;;;0.40;;
63606;SDS011;71992;52.478;-1.918;2024-01-30T05:39:27;0.30;;;0.30;;
63606;SDS011;71992;52.478;-1.918;2024-01-30T05:42:00;1.23;;;0.47;;
63606;SDS011;71992;52.478;-1.918;2024-01-30T05:44:31;1.75;;;0.50;;
63606;SDS011;71992;52.478;-1.918;2024-01-30T05:47:02;0.32;;;0.32;;
63606;SDS011;71992;52.478;-1.918;2024-01-30T05:49:33;0.40;;;0.40;;
63606;SDS011;71992;52.478;-1.918;2024-01-30T05:52:04;0.30;;;0.30;;
63606;SDS011;71992;52.478;-1.918;2024-01-30T05:54:39;0.40;;;0.40;;
63606;SDS011;71992;52.478;-1.918;2024-01-30T05:57:10;0.30;;;0.30;;
63606;SDS011;71992;52.478;-1.918;2024-01-30T05:59:40;0.30;;;0.30;;
63606;SDS011;71992;52.478;-1.918;2024-01-30T06:02:11;0.30;;;0.30;;
63606;SDS011;71992;52.478;-1.918;2024-01-30T06:04:42;0.30;;;0.30;;
63606;SDS011;71992;52.478;-1.918;2024-01-30T06:07:13;0.63;;;0.40;;
63606;SDS011;71992;52.478;-1.918;2024-01-30T06:09:47;0.38;;;0.38;;
63606;SDS011;71992;52.478;-1.918;2024-01-30T06:12:18;0.28;;;0.22;;
63606;SDS011;71992;52.478;-1.918;2024-01-30T06:14:49;0.35;;;0.30;;
63606;SDS011;71992;52.478;-1.918;2024-01-30T06:17:21;0.30;;;0.30;;
63606;SDS011;71992;52.478;-1.918;2024-01-30T06:19:52;1.67;;;0.35;;
63606;SDS011;71992;52.478;-1.918;2024-01-30T06:22:23;0.30;;;0.30;;
63606;SDS011;71992;52.478;-1.918;2024-01-30T06:24:57;0.30;;;0.30;;
63606;SDS011;71992;52.478;-1.918;2024-01-30T06:27:28;0.30;;;0.30;;
63606;SDS011;71992;52.478;-1.918;2024-01-30T06:29:59;0.40;;;0.40;;
63606;SDS011;71992;52.478;-1.918;2024-01-30T06:32:31;0.40;;;0.30;;
63606;SDS011;71992;52.478;-1.918;2024-01-30T06:37:34;0.50;;;0.30;;
63606;SDS011;71992;52.478;-1.918;2024-01-30T06:40:08;0.40;;;0.40;;
63606;SDS011;71992;52.478;-1.918;2024-01-30T06:42:39;0.57;;;0.40;;
63606;SDS011;71992;52.478;-1.918;2024-01-30T06:45:10;0.30;;;0.30;;
63606;SDS011;71992;52.478;-1.918;2024-01-30T06:47:41;0.50;;;0.50;;
63606;SDS011;71992;52.478;-1.918;2024-01-30T06:50:12;0.55;;;0.55;;
63606;SDS011;71992;52.478;-1.918;2024-01-30T06:52:43;0.35;;;0.30;;
63606;SDS011;71992;52.478;-1.918;2024-01-30T06:55:16;0.40;;;0.40;;
63606;SDS011;71992;52.478;-1.918;2024-01-30T06:57:48;0.38;;;0.38;;
63606;SDS011;71992;52.478;-1.918;2024-01-30T07:00:19;0.40;;;0.40;;
63606;SDS011;71992;52.478;-1.918;2024-01-30T07:02:50;0.68;;;0.40;;
63606;SDS011;71992;52.478;-1.918;2024-01-30T07:05:22;0.40;;;0.40;;
63606;SDS011;71992;52.478;-1.918;2024-01-30T07:07:52;0.32;;;0.32;;
63606;SDS011;71992;52.478;-1.918;2024-01-30T07:10:26;0.73;;;0.35;;
63606;SDS011;71992;52.478;-1.918;2024-01-30T07:13:00;0.30;;;0.30;;
63606;SDS011;71992;52.478;-1.918;2024-01-30T07:15:31;0.35;;;0.35;;
63606;SDS011;71992;52.478;-1.918;2024-01-30T07:18:04;0.32;;;0.32;;
63606;SDS011;71992;52.478;-1.918;2024-01-30T07:20:37;0.30;;;0.30;;
63606;SDS011;71992;52.478;-1.918;2024-01-30T07:23:10;0.20;;;0.20;;
63606;SDS011;71992;52.478;-1.918;2024-01-30T07:25:46;0.85;;;0.40;;
63606;SDS011;71992;52.478;-1.918;2024-01-30T07:28:17;0.30;;;0.30;;
63606;SDS011;71992;52.478;-1.918;2024-01-30T07:30:48;0.80;;;0.40;;
63606;SDS011;71992;52.478;-1.918;2024-01-30T07:33:19;0.30;;;0.30;;
63606;SDS011;71992;52.478;-1.918;2024-01-30T07:35:51;0.55;;;0.40;;
63606;SDS011;71992;52.478;-1.918;2024-01-30T07:38:24;0.95;;;0.30;;
63606;SDS011;71992;52.478;-1.918;2024-01-30T07:40:57;0.32;;;0.30;;
63606;SDS011;71992;52.478;-1.918;2024-01-30T07:43:28;0.30;;;0.30;;
63606;SDS011;71992;52.478;-1.918;2024-01-30T07:45:59;0.50;;;0.30;;
63606;SDS011;71992;52.478;-1.918;2024-01-30T07:48:30;0.40;;;0.40;;
63606;SDS011;71992;52.478;-1.918;2024-01-30T07:51:01;0.35;;;0.35;;
63606;SDS011;71992;52.478;-1.918;2024-01-30T07:53:32;0.30;;;0.30;;
63606;SDS011;71992;52.478;-1.918;2024-01-30T07:56:06;1.00;;;0.40;;
63606;SDS011;71992;52.478;-1.918;2024-01-30T07:58:37;0.40;;;0.40;;
63606;SDS011;71992;52.478;-1.918;2024-01-30T08:01:08;0.38;;;0.38;;
63606;SDS011;71992;52.478;-1.918;2024-01-30T08:03:39;0.30;;;0.30;;
63606;SDS011;71992;52.478;-1.918;2024-01-30T08:06:11;0.40;;;0.40;;
63606;SDS011;71992;52.478;-1.918;2024-01-30T08:08:42;0.30;;;0.30;;
63606;SDS011;71992;52.478;-1.918;2024-01-30T08:11:15;0.65;;;0.30;;
63606;SDS011;71992;52.478;-1.918;2024-01-30T08:13:46;0.30;;;0.30;;
63606;SDS011;71992;52.478;-1.918;2024-01-30T08:16:17;0.50;;;0.50;;
63606;SDS011;71992;52.478;-1.918;2024-01-30T08:18:48;0.75;;;0.75;;
63606;SDS011;71992;52.478;-1.918;2024-01-30T08:21:20;0.95;;;0.60;;
63606;SDS011;71992;52.478;-1.918;2024-01-30T08:23:51;0.43;;;0.43;;
63606;SDS011;71992;52.478;-1.918;2024-01-30T08:26:25;1.35;;;0.80;;
63606;SDS011;71992;52.478;-1.918;2024-01-30T08:28:56;0.70;;;0.45;;
63606;SDS011;71992;52.478;-1.918;2024-01-30T08:31:27;0.50;;;0.40;;
63606;SDS011;71992;52.478;-1.918;2024-01-30T08:33:58;0.40;;;0.40;;
63606;SDS011;71992;52.478;-1.918;2024-01-30T08:36:29;0.40;;;0.40;;
63606;SDS011;71992;52.478;-1.918;2024-01-30T08:39:00;0.47;;;0.40;;
63606;SDS011;71992;52.478;-1.918;2024-01-30T08:41:35;1.45;;;0.40;;
63606;SDS011;71992;52.478;-1.918;2024-01-30T08:44:06;0.40;;;0.40;;
63606;SDS011;71992;52.478;-1.918;2024-01-30T08:46:38;1.77;;;0.70;;
63606;SDS011;71992;52.478;-1.918;2024-01-30T08:49:09;0.40;;;0.40;;
63606;SDS011;71992;52.478;-1.918;2024-01-30T08:51:40;0.77;;;0.40;;
63606;SDS011;71992;52.478;-1.918;2024-01-30T08:54:11;1.10;;;0.30;;
63606;SDS011;71992;52.478;-1.918;2024-01-30T08:56:45;0.50;;;0.50;;
63606;SDS011;71992;52.478;-1.918;2024-01-30T08:59:16;1.25;;;0.50;;
63606;SDS011;71992;52.478;-1.918;2024-01-30T09:01:47;0.63;;;0.40;;
63606;SDS011;71992;52.478;-1.918;2024-01-30T09:04:21;0.80;;;0.40;;
63606;SDS011;71992;52.478;-1.918;2024-01-30T09:06:52;0.40;;;0.40;;
63606;SDS011;71992;52.478;-1.918;2024-01-30T09:09:23;0.40;;;0.40;;
63606;SDS011;71992;52.478;-1.918;2024-01-30T09:11:56;0.40;;;0.40;;
63606;SDS011;71992;52.478;-1.918;2024-01-30T09:14:34;0.82;;;0.60;;
63606;SDS011;71992;52.478;-1.918;2024-01-30T09:17:05;0.50;;;0.45;;
63606;SDS011;71992;52.478;-1.918;2024-01-30T09:19:36;1.05;;;0.50;;
63606;SDS011;71992;52.478;-1.918;2024-01-30T09:22:07;0.60;;;0.50;;
63606;SDS011;71992;52.478;-1.918;2024-01-30T09:24:37;0.40;;;0.40;;
63606;SDS011;71992;52.478;-1.918;2024-01-30T09:27:11;0.40;;;0.40;;
63606;SDS011;71992;52.478;-1.918;2024-01-30T09:29:42;0.65;;;0.50;;
63606;SDS011;71992;52.478;-1.918;2024-01-30T09:32:13;0.70;;;0.50;;
63606;SDS011;71992;52.478;-1.918;2024-01-30T09:34:45;0.93;;;0.50;;
63606;SDS011;71992;52.478;-1.918;2024-01-30T09:37:16;0.65;;;0.50;;
63606;SDS011;71992;52.478;-1.918;2024-01-30T09:39:48;0.50;;;0.50;;
63606;SDS011;71992;52.478;-1.918;2024-01-30T09:42:25;0.50;;;0.50;;
63606;SDS011;71992;52.478;-1.918;2024-01-30T09:44:59;0.68;;;0.50;;
63606;SDS011;71992;52.478;-1.918;2024-01-30T09:47:31;0.90;;;0.55;;
63606;SDS011;71992;52.478;-1.918;2024-01-30T09:50:03;0.50;;;0.50;;
63606;SDS011;71992;52.478;-1.918;2024-01-30T09:52:34;0.93;;;0.57;;
63606;SDS011;71992;52.478;-1.918;2024-01-30T09:55:06;0.68;;;0.50;;
63606;SDS011;71992;52.478;-1.918;2024-01-30T09:57:41;1.35;;;0.70;;
63606;SDS011;71992;52.478;-1.918;2024-01-30T10:00:12;1.17;;;0.90;;
63606;SDS011;71992;52.478;-1.918;2024-01-30T10:02:43;1.10;;;0.70;;
63606;SDS011;71992;52.478;-1.918;2024-01-30T10:05:15;0.75;;;0.65;;
63606;SDS011;71992;52.478;-1.918;2024-01-30T10:07:52;0.93;;;0.60;;
63606;SDS011;71992;52.478;-1.918;2024-01-30T10:10:24;0.70;;;0.60;;
63606;SDS011;71992;52.478;-1.918;2024-01-30T10:12:57;0.63;;;0.52;;
63606;SDS011;71992;52.478;-1.918;2024-01-30T10:15:28;1.00;;;0.60;;
63606;SDS011;71992;52.478;-1.918;2024-01-30T10:18:02;1.58;;;1.17;;
63606;SDS011;71992;52.478;-1.918;2024-01-30T10:20:34;2.13;;;1.48;;
63606;SDS011;71992;52.478;-1.918;2024-01-30T10:23:05;2.42;;;1.02;;
63606;SDS011;71992;52.478;-1.918;2024-01-30T10:25:36;1.65;;;0.90;;
63606;SDS011;71992;52.478;-1.918;2024-01-30T10:28:11;0.90;;;0.65;;
63606;SDS011;71992;52.478;-1.918;2024-01-30T10:30:42;1.92;;;0.70;;
63606;SDS011;71992;52.478;-1.918;2024-01-30T10:33:12;1.20;;;0.70;;
63606;SDS011;71992;52.478;-1.918;2024-01-30T10:35:43;0.63;;;0.50;;
63606;SDS011;71992;52.478;-1.918;2024-01-30T10:38:15;2.38;;;0.75;;
63606;SDS011;71992;52.478;-1.918;2024-01-30T10:40:50;0.85;;;0.60;;
63606;SDS011;71992;52.478;-1.918;2024-01-30T10:43:29;1.10;;;0.70;;
63606;SDS011;71992;52.478;-1.918;2024-01-30T10:46:05;0.43;;;0.43;;
63606;SDS011;71992;52.478;-1.918;2024-01-30T10:48:42;0.50;;;0.50;;
63606;SDS011;71992;52.478;-1.918;2024-01-30T10:51:13;0.45;;;0.43;;
63606;SDS011;71992;52.478;-1.918;2024-01-30T10:53:46;0.85;;;0.55;;
63606;SDS011;71992;52.478;-1.918;2024-01-30T10:56:19;0.43;;;0.43;;
63606;SDS011;71992;52.478;-1.918;2024-01-30T10:58:55;0.98;;;0.40;;
63606;SDS011;71992;52.478;-1.918;2024-01-30T11:01:26;0.95;;;0.50;;
63606;SDS011;71992;52.478;-1.918;2024-01-30T11:03:58;1.00;;;0.50;;
63606;SDS011;71992;52.478;-1.918;2024-01-30T11:06:29;0.40;;;0.40;;
63606;SDS011;71992;52.478;-1.918;2024-01-30T11:09:00;0.82;;;0.55;;
63606;SDS011;71992;52.478;-1.918;2024-01-30T11:11:47;0.45;;;0.40;;
63606;SDS011;71992;52.478;-1.918;2024-01-30T11:14:28;0.82;;;0.50;;
63606;SDS011;71992;52.478;-1.918;2024-01-30T11:17:00;0.50;;;0.50;;
63606;SDS011;71992;52.478;-1.918;2024-01-30T11:19:31;0.80;;;0.40;;
63606;SDS011;71992;52.478;-1.918;2024-01-30T11:22:03;0.73;;;0.50;;
63606;SDS011;71992;52.478;-1.918;2024-01-30T11:24:39;1.52;;;0.40;;
63606;SDS011;71992;52.478;-1.918;2024-01-30T11:27:11;0.77;;;0.52;;
63606;SDS011;71992;52.478;-1.918;2024-01-30T11:29:49;0.40;;;0.40;;
63606;SDS011;71992;52.478;-1.918;2024-01-30T11:32:22;0.82;;;0.40;;
63606;SDS011;71992;52.478;-1.918;2024-01-30T11:34:53;0.57;;;0.50;;
63606;SDS011;71992;52.478;-1.918;2024-01-30T11:37:25;1.30;;;0.50;;
63606;SDS011;71992;52.478;-1.918;2024-01-30T11:39:56;0.50;;;0.50;;
63606;SDS011;71992;52.478;-1.918;2024-01-30T11:45:03;0.93;;;0.70;;
63606;SDS011;71992;52.478;-1.918;2024-01-30T11:47:35;0.95;;;0.70;;
63606;SDS011;71992;52.478;-1.918;2024-01-30T11:50:07;1.95;;;0.70;;
63606;SDS011;71992;52.478;-1.918;2024-01-30T11:52:39;0.60;;;0.57;;
63606;SDS011;71992;52.478;-1.918;2024-01-30T11:55:13;1.67;;;0.98;;
63606;SDS011;71992;52.478;-1.918;2024-01-30T11:57:45;0.88;;;0.75;;
63606;SDS011;71992;52.478;-1.918;2024-01-30T12:00:19;1.60;;;1.00;;
63606;SDS011;71992;52.478;-1.918;2024-01-30T12:02:50;0.82;;;0.82;;
63606;SDS011;71992;52.478;-1.918;2024-01-30T12:05:23;1.27;;;0.93;;
63606;SDS011;71992;52.478;-1.918;2024-01-30T12:07:55;0.70;;;0.60;;
63606;SDS011;71992;52.478;-1.918;2024-01-30T12:10:28;0.73;;;0.70;;
63606;SDS011;71992;52.478;-1.918;2024-01-30T12:13:00;1.60;;;0.85;;
63606;SDS011;71992;52.478;-1.918;2024-01-30T12:15:35;1.25;;;0.70;;
63606;SDS011;71992;52.478;-1.918;2024-01-30T12:18:07;1.23;;;0.93;;
63606;SDS011;71992;52.478;-1.918;2024-01-30T12:20:39;3.70;;;1.95;;
63606;SDS011;71992;52.478;-1.918;2024-01-30T12:23:11;8.43;;;4.18;;
63606;SDS011;71992;52.478;-1.918;2024-01-30T12:25:43;5.85;;;3.47;;
63606;SDS011;71992;52.478;-1.918;2024-01-30T12:28:15;4.35;;;2.85;;
63606;SDS011;71992;52.478;-1.918;2024-01-30T12:30:49;3.67;;;2.92;;
63606;SDS011;71992;52.478;-1.918;2024-01-30T12:33:22;5.90;;;2.33;;
63606;SDS011;71992;52.478;-1.918;2024-01-30T12:35:55;4.50;;;2.55;;
63606;SDS011;71992;52.478;-1.918;2024-01-30T12:38:27;5.00;;;2.17;;
63606;SDS011;71992;52.478;-1.918;2024-01-30T12:40:57;3.65;;;1.95;;
63606;SDS011;71992;52.478;-1.918;2024-01-30T12:43:30;4.00;;;2.10;;
63606;SDS011;71992;52.478;-1.918;2024-01-30T12:46:04;3.55;;;1.70;;
63606;SDS011;71992;52.478;-1.918;2024-01-30T12:48:35;3.75;;;1.80;;
63606;SDS011;71992;52.478;-1.918;2024-01-30T12:51:06;2.25;;;1.50;;
63606;SDS011;71992;52.478;-1.918;2024-01-30T12:53:37;3.13;;;1.65;;
63606;SDS011;71992;52.478;-1.918;2024-01-30T12:56:08;3.40;;;1.85;;
63606;SDS011;71992;52.478;-1.918;2024-01-30T12:58:39;4.15;;;1.33;;
63606;SDS011;71992;52.478;-1.918;2024-01-30T13:01:14;3.97;;;2.20;;
63606;SDS011;71992;52.478;-1.918;2024-01-30T13:03:44;2.20;;;1.60;;
63606;SDS011;71992;52.478;-1.918;2024-01-30T13:06:15;2.08;;;1.10;;
63606;SDS011;71992;52.478;-1.918;2024-01-30T13:08:46;2.85;;;1.38;;
63606;SDS011;71992;52.478;-1.918;2024-01-30T13:11:21;1.30;;;1.00;;
63606;SDS011;71992;52.478;-1.918;2024-01-30T13:13:53;3.28;;;0.95;;
63606;SDS011;71992;52.478;-1.918;2024-01-30T13:16:26;2.15;;;0.90;;
63606;SDS011;71992;52.478;-1.918;2024-01-30T13:18:57;1.65;;;0.80;;
63606;SDS011;71992;52.478;-1.918;2024-01-30T13:21:29;2.23;;;0.90;;
63606;SDS011;71992;52.478;-1.918;2024-01-30T13:24:00;1.08;;;0.90;;
63606;SDS011;71992;52.478;-1.918;2024-01-30T13:26:31;1.15;;;0.70;;
63606;SDS011;71992;52.478;-1.918;2024-01-30T13:29:02;1.88;;;0.85;;
63606;SDS011;71992;52.478;-1.918;2024-01-30T13:31:36;1.70;;;0.82;;
63606;SDS011;71992;52.478;-1.918;2024-01-30T13:34:07;1.30;;;0.70;;
63606;SDS011;71992;52.478;-1.918;2024-01-30T13:36:38;1.25;;;0.80;;
63606;SDS011;71992;52.478;-1.918;2024-01-30T13:39:09;1.42;;;0.70;;
63606;SDS011;71992;52.478;-1.918;2024-01-30T13:41:41;1.65;;;0.70;;
63606;SDS011;71992;52.478;-1.918;2024-01-30T13:44:11;1.13;;;0.70;;
63606;SDS011;71992;52.478;-1.918;2024-01-30T13:46:46;1.58;;;0.80;;
63606;SDS011;71992;52.478;-1.918;2024-01-30T13:49:19;1.88;;;1.05;;
63606;SDS011;71992;52.478;-1.918;2024-01-30T13:51:50;0.82;;;0.60;;
63606;SDS011;71992;52.478;-1.918;2024-01-30T13:54:23;1.88;;;0.90;;
63606;SDS011;71992;52.478;-1.918;2024-01-30T13:56:54;1.40;;;0.98;;
63606;SDS011;71992;52.478;-1.918;2024-01-30T13:59:25;1.33;;;0.80;;
63606;SDS011;71992;52.478;-1.918;2024-01-30T14:01:58;1.27;;;0.75;;
63606;SDS011;71992;52.478;-1.918;2024-01-30T14:04:29;1.10;;;0.77;;
63606;SDS011;71992;52.478;-1.918;2024-01-30T14:07:00;2.50;;;0.80;;
63606;SDS011;71992;52.478;-1.918;2024-01-30T14:09:31;1.33;;;0.90;;
63606;SDS011;71992;52.478;-1.918;2024-01-30T14:12:02;1.15;;;0.77;;
63606;SDS011;71992;52.478;-1.918;2024-01-30T14:14:34;1.58;;;0.80;;
63606;SDS011;71992;52.478;-1.918;2024-01-30T14:17:07;1.63;;;0.80;;
63606;SDS011;71992;52.478;-1.918;2024-01-30T14:19:38;2.45;;;0.75;;
63606;SDS011;71992;52.478;-1.918;2024-01-30T14:22:09;1.02;;;0.85;;
63606;SDS011;71992;52.478;-1.918;2024-01-30T14:24:40;0.93;;;0.82;;
63606;SDS011;71992;52.478;-1.918;2024-01-30T14:27:12;1.50;;;0.77;;
63606;SDS011;71992;52.478;-1.918;2024-01-30T14:29:43;1.05;;;0.80;;
63606;SDS011;71992;52.478;-1.918;2024-01-30T14:32:16;1.45;;;0.90;;
63606;SDS011;71992;52.478;-1.918;2024-01-30T14:34:47;1.13;;;0.82;;
63606;SDS011;71992;52.478;-1.918;2024-01-30T14:37:18;2.50;;;0.90;;
63606;SDS011;71992;52.478;-1.918;2024-01-30T14:39:49;1.52;;;0.90;;
63606;SDS011;71992;52.478;-1.918;2024-01-30T14:42:21;1.50;;;0.70;;
63606;SDS011;71992;52.478;-1.918;2024-01-30T14:44:52;1.90;;;0.70;;
63606;SDS011;71992;52.478;-1.918;2024-01-30T14:47:26;0.75;;;0.70;;
63606;SDS011;71992;52.478;-1.918;2024-01-30T14:49:56;0.77;;;0.50;;
63606;SDS011;71992;52.478;-1.918;2024-01-30T14:52:28;1.00;;;0.80;;
63606;SDS011;71992;52.478;-1.918;2024-01-30T14:54:58;0.70;;;0.60;;
63606;SDS011;71992;52.478;-1.918;2024-01-30T14:57:29;1.10;;;0.57;;
63606;SDS011;71992;52.478;-1.918;2024-01-30T15:00:02;1.02;;;0.73;;
63606;SDS011;71992;52.478;-1.918;2024-01-30T15:02:37;0.75;;;0.70;;
63606;SDS011;71992;52.478;-1.918;2024-01-30T15:05:08;0.85;;;0.63;;
63606;SDS011;71992;52.478;-1.918;2024-01-30T15:07:39;0.95;;;0.65;;